Terminal Aerodrome Forecast
Issued by NWS

Home | Current Version | Previous Version | Text Only | Print | Product List | Glossary On
Versions: 1 2 3 4 5 6 7 8 9 10 11 12 13 14 15
000
FTUS45 KFGZ 250203 AAA
TAFSEZ
TAF AMD
KSEZ 250203Z 2502/2524 26015G25KT P6SM SCT130 OVC250
     FM250600 20010KT P6SM SCT130
     FM251700 22010G20KT P6SM SCT130=

USA.gov is the U.S. government's official web portal to all federal, state and local government web resources and services.